Time,TemperatureF,DewpointF,PressureIn,WindDirection,WindDirectionDegrees,WindSpeedMPH,WindSpeedGustMPH,Humidity,HourlyPrecipIn,Conditions,Clouds,dailyrainin,SoftwareType,DateUTC
2013-03-22 00:00:00,20.3,15.1,30.12,NE,44,0.0,-999.0,80,0.00,,,0.00,Wunderground v.1.15,2013-03-22 05:00:00,
2013-03-22 00:05:00,20.3,15.4,30.12,NE,44,0.0,-999.0,81,0.00,,,0.00,Wunderground v.1.15,2013-03-22 05:05:00,
2013-03-22 00:10:00,20.2,15.3,30.12,NE,44,0.0,-999.0,81,0.00,,,0.00,Wunderground v.1.15,2013-03-22 05:10:00,
2013-03-22 00:20:00,19.8,14.6,30.12,NE,44,0.0,-999.0,80,0.00,,,0.00,Wunderground v.1.15,2013-03-22 05:20:00,
2013-03-22 00:25:00,19.8,15.2,30.12,NE,44,0.0,-999.0,82,0.00,,,0.00,Wunderground v.1.15,2013-03-22 05:25:00,
2013-03-22 00:30:00,19.7,15.4,30.12,NE,44,0.0,-999.0,83,0.00,,,0.00,Wunderground v.1.15,2013-03-22 05:30:00,
2013-03-22 00:35:00,19.5,15.2,30.12,NE,44,0.0,-999.0,83,0.00,,,0.00,Wunderground v.1.15,2013-03-22 05:35:00,
2013-03-22 00:40:00,19.3,15.3,30.13,NE,44,0.0,-999.0,84,0.00,,,0.00,Wunderground v.1.15,2013-03-22 05:40:00,
2013-03-22 00:45:00,19.2,15.4,30.13,NE,44,0.0,-999.0,85,0.00,,,0.00,Wunderground v.1.15,2013-03-22 05:45:00,
2013-03-22 00:55:00,19.0,15.5,30.13,NE,44,0.0,-999.0,86,0.00,,,0.00,Wunderground v.1.15,2013-03-22 05:55:00,
2013-03-22 01:00:00,18.9,15.7,30.13,NE,44,0.0,-999.0,87,0.00,,,0.00,Wunderground v.1.15,2013-03-22 06:00:00,
2013-03-22 01:05:00,18.9,15.7,30.13,NE,44,0.0,-999.0,87,0.00,,,0.00,Wunderground v.1.15,2013-03-22 06:05:00,
2013-03-22 01:10:00,18.8,15.6,30.13,NE,44,0.0,-999.0,87,0.00,,,0.00,Wunderground v.1.15,2013-03-22 06:10:00,
2013-03-22 01:15:00,18.6,15.4,30.13,NE,44,0.0,-999.0,87,0.00,,,0.00,Wunderground v.1.15,2013-03-22 06:15:00,
2013-03-22 01:20:00,18.4,14.9,30.13,NE,44,0.0,-999.0,86,0.00,,,0.00,Wunderground v.1.15,2013-03-22 06:20:00,
2013-03-22 01:25:00,18.2,15.0,30.13,NE,44,0.0,-999.0,87,0.00,,,0.00,Wunderground v.1.15,2013-03-22 06:25:00,
2013-03-22 01:30:00,18.2,15.2,30.13,NE,44,0.0,-999.0,88,0.00,,,0.00,Wunderground v.1.15,2013-03-22 06:30:00,
2013-03-22 01:35:00,18.1,15.1,30.13,NE,44,0.0,-999.0,88,0.00,,,0.00,Wunderground v.1.15,2013-03-22 06:35:00,
2013-03-22 01:40:00,18.0,15.0,30.13,NE,44,0.0,-999.0,88,0.00,,,0.00,Wunderground v.1.15,2013-03-22 06:40:00,
2013-03-22 01:45:00,17.9,14.9,30.13,NE,44,0.0,-999.0,88,0.00,,,0.00,Wunderground v.1.15,2013-03-22 06:45:00,
2013-03-22 01:55:00,17.6,14.9,30.13,NE,44,0.0,-999.0,89,0.00,,,0.00,Wunderground v.1.15,2013-03-22 06:55:00,
2013-03-22 02:00:00,17.6,15.2,30.13,NE,44,0.0,-999.0,90,0.00,,,0.00,Wunderground v.1.15,2013-03-22 07:00:00,
2013-03-22 02:05:00,17.5,15.1,30.13,NE,44,0.0,-999.0,90,0.00,,,0.00,Wunderground v.1.15,2013-03-22 07:05:00,
2013-03-22 02:10:00,17.5,15.1,30.13,NE,44,0.0,-999.0,90,0.00,,,0.00,Wunderground v.1.15,2013-03-22 07:10:00,
2013-03-22 02:15:00,17.4,15.0,30.13,NE,44,0.0,-999.0,90,0.00,,,0.00,Wunderground v.1.15,2013-03-22 07:15:00,
2013-03-22 02:20:00,17.4,15.0,30.13,NE,44,0.0,-999.0,90,0.00,,,0.00,Wunderground v.1.15,2013-03-22 07:20:00,
2013-03-22 02:30:00,17.3,14.9,30.13,NE,44,0.0,-999.0,90,0.00,,,0.00,Wunderground v.1.15,2013-03-22 07:30:00,
2013-03-22 02:35:00,17.3,15.1,30.13,NE,44,0.0,-999.0,91,0.00,,,0.00,Wunderground v.1.15,2013-03-22 07:35:00,
2013-03-22 02:40:00,17.3,15.1,30.13,NE,44,0.0,-999.0,91,0.00,,,0.00,Wunderground v.1.15,2013-03-22 07:40:00,
2013-03-22 02:45:00,17.3,15.1,30.14,NE,44,0.0,-999.0,91,0.00,,,0.00,Wunderground v.1.15,2013-03-22 07:45:00,
2013-03-22 02:50:00,17.4,15.2,30.14,NE,44,0.0,-999.0,91,0.00,,,0.00,Wunderground v.1.15,2013-03-22 07:50:00,
2013-03-22 03:00:00,17.2,14.8,30.14,NE,44,0.0,-999.0,90,0.00,,,0.00,Wunderground v.1.15,2013-03-22 08:00:00,
2013-03-22 03:05:00,17.0,14.6,30.14,NE,44,0.0,-999.0,90,0.00,,,0.00,Wunderground v.1.15,2013-03-22 08:05:00,
2013-03-22 03:10:00,16.8,14.4,30.14,NE,44,0.0,-999.0,90,0.00,,,0.00,Wunderground v.1.15,2013-03-22 08:10:00,
2013-03-22 03:15:00,16.7,14.5,30.14,NE,44,0.0,-999.0,91,0.00,,,0.00,Wunderground v.1.15,2013-03-22 08:15:00,
2013-03-22 03:20:00,16.6,14.4,30.14,NE,44,0.0,-999.0,91,0.00,,,0.00,Wunderground v.1.15,2013-03-22 08:20:00,
2013-03-22 03:30:00,16.5,14.3,30.14,NE,44,0.0,-999.0,91,0.00,,,0.00,Wunderground v.1.15,2013-03-22 08:30:00,
2013-03-22 03:35:00,16.5,14.3,30.14,NE,44,0.0,-999.0,91,0.00,,,0.00,Wunderground v.1.15,2013-03-22 08:35:00,
2013-03-22 03:40:00,16.6,14.7,30.14,NE,44,0.0,-999.0,92,0.00,,,0.00,Wunderground v.1.15,2013-03-22 08:40:00,
2013-03-22 03:45:00,16.6,14.7,30.14,NE,44,0.0,-999.0,92,0.00,,,0.00,Wunderground v.1.15,2013-03-22 08:45:00,
2013-03-22 03:50:00,16.6,14.4,30.14,NE,44,0.0,-999.0,91,0.00,,,0.00,Wunderground v.1.15,2013-03-22 08:50:00,
2013-03-22 04:00:00,16.6,14.7,30.14,NE,44,0.0,-999.0,92,0.00,,,0.00,Wunderground v.1.15,2013-03-22 09:00:00,
2013-03-22 04:05:00,16.5,14.6,30.14,NE,44,0.0,-999.0,92,0.00,,,0.00,Wunderground v.1.15,2013-03-22 09:05:00,
2013-03-22 04:10:00,16.4,14.2,30.14,NE,44,0.0,-999.0,91,0.00,,,0.00,Wunderground v.1.15,2013-03-22 09:10:00,
2013-03-22 04:15:00,16.3,14.1,30.14,NE,44,0.0,-999.0,91,0.00,,,0.00,Wunderground v.1.15,2013-03-22 09:15:00,
2013-03-22 04:20:00,16.2,14.0,30.14,NE,44,0.0,-999.0,91,0.00,,,0.00,Wunderground v.1.15,2013-03-22 09:20:00,
2013-03-22 04:25:00,15.9,13.7,30.14,NE,44,0.0,-999.0,91,0.00,,,0.00,Wunderground v.1.15,2013-03-22 09:25:00,
2013-03-22 04:35:00,15.7,13.5,30.14,NE,44,0.0,-999.0,91,0.00,,,0.00,Wunderground v.1.15,2013-03-22 09:35:00,
2013-03-22 04:40:00,15.7,13.5,30.14,NE,44,0.0,-999.0,91,0.00,,,0.00,Wunderground v.1.15,2013-03-22 09:40:00,
2013-03-22 04:45:00,15.7,13.8,30.14,NE,44,0.0,-999.0,92,0.00,,,0.00,Wunderground v.1.15,2013-03-22 09:45:00,
2013-03-22 04:50:00,15.8,13.9,30.14,NE,44,1.0,-999.0,92,0.00,,,0.00,Wunderground v.1.15,2013-03-22 09:50:00,
2013-03-22 04:55:00,15.9,14.0,30.14,NE,44,0.0,-999.0,92,0.00,,,0.00,Wunderground v.1.15,2013-03-22 09:55:00,
2013-03-22 05:00:00,15.9,14.0,30.14,NE,44,0.0,-999.0,92,0.00,,,0.00,Wunderground v.1.15,2013-03-22 10:00:00,
2013-03-22 05:05:00,15.9,14.0,30.14,NE,44,0.0,-999.0,92,0.00,,,0.00,Wunderground v.1.15,2013-03-22 10:05:00,
2013-03-22 05:10:00,15.8,13.9,30.14,NE,44,0.0,-999.0,92,0.00,,,0.00,Wunderground v.1.15,2013-03-22 10:10:00,
2013-03-22 05:15:00,15.9,14.0,30.14,NE,44,0.0,-999.0,92,0.00,,,0.00,Wunderground v.1.15,2013-03-22 10:15:00,
2013-03-22 05:20:00,15.8,13.9,30.14,NE,44,0.0,-999.0,92,0.00,,,0.00,Wunderground v.1.15,2013-03-22 10:20:00,
2013-03-22 05:25:00,15.8,13.9,30.14,NE,44,0.0,-999.0,92,0.00,,,0.00,Wunderground v.1.15,2013-03-22 10:25:00,
2013-03-22 05:35:00,15.7,13.8,30.14,NE,44,0.0,-999.0,92,0.00,,,0.00,Wunderground v.1.15,2013-03-22 10:35:00,
2013-03-22 05:40:00,15.6,13.7,30.14,NE,44,0.0,-999.0,92,0.00,,,0.00,Wunderground v.1.15,2013-03-22 10:40:00,
2013-03-22 05:45:00,15.4,13.2,30.14,NE,44,0.0,-999.0,91,0.00,,,0.00,Wunderground v.1.15,2013-03-22 10:45:00,
2013-03-22 05:50:00,15.4,13.5,30.14,NE,44,0.0,-999.0,92,0.00,,,0.00,Wunderground v.1.15,2013-03-22 10:50:00,
2013-03-22 05:55:00,15.5,13.6,30.14,NE,44,0.0,-999.0,92,0.00,,,0.00,Wunderground v.1.15,2013-03-22 10:55:00,
2013-03-22 06:00:00,15.5,13.6,30.14,NE,44,0.0,-999.0,92,0.00,,,0.00,Wunderground v.1.15,2013-03-22 11:00:00,
2013-03-22 06:05:00,15.5,13.6,30.14,NE,44,0.0,-999.0,92,0.00,,,0.00,Wunderground v.1.15,2013-03-22 11:05:00,
2013-03-22 06:10:00,15.5,13.6,30.14,NE,44,0.0,-999.0,92,0.00,,,0.00,Wunderground v.1.15,2013-03-22 11:10:00,
2013-03-22 06:15:00,15.4,13.5,30.14,NE,44,0.0,-999.0,92,0.00,,,0.00,Wunderground v.1.15,2013-03-22 11:15:00,
2013-03-22 06:20:00,15.5,13.6,30.14,NE,44,1.0,-999.0,92,0.00,,,0.00,Wunderground v.1.15,2013-03-22 11:20:00,
2013-03-22 06:25:00,15.5,13.6,30.14,NE,44,1.0,-999.0,92,0.00,,,0.00,Wunderground v.1.15,2013-03-22 11:25:00,
2013-03-22 06:30:00,15.5,13.6,30.15,NE,44,0.0,-999.0,92,0.00,,,0.00,Wunderground v.1.15,2013-03-22 11:30:00,
2013-03-22 06:40:00,15.2,13.0,30.15,NE,44,0.0,-999.0,91,0.00,,,0.00,Wunderground v.1.15,2013-03-22 11:40:00,
2013-03-22 06:45:00,15.0,13.1,30.15,NE,44,0.0,-999.0,92,0.00,,,0.00,Wunderground v.1.15,2013-03-22 11:45:00,
2013-03-22 06:50:00,15.0,13.1,30.15,NE,44,0.0,-999.0,92,0.00,,,0.00,Wunderground v.1.15,2013-03-22 11:50:00,
2013-03-22 06:55:00,15.0,13.1,30.15,NE,44,0.0,-999.0,92,0.00,,,0.00,Wunderground v.1.15,2013-03-22 11:55:00,
2013-03-22 07:00:00,15.0,13.1,30.15,NE,44,0.0,-999.0,92,0.00,,,0.00,Wunderground v.1.15,2013-03-22 12:00:00,
2013-03-22 07:05:00,15.0,13.1,30.15,NE,44,0.0,-999.0,92,0.00,,,0.00,Wunderground v.1.15,2013-03-22 12:05:00,
2013-03-22 07:15:00,14.9,13.0,30.16,NE,44,0.0,-999.0,92,0.00,,,0.00,Wunderground v.1.15,2013-03-22 12:15:00,
2013-03-22 07:20:00,14.9,13.0,30.15,NE,44,0.0,-999.0,92,0.00,,,0.00,Wunderground v.1.15,2013-03-22 12:20:00,
2013-03-22 07:25:00,15.1,13.4,30.15,NE,44,0.0,-999.0,93,0.00,,,0.00,Wunderground v.1.15,2013-03-22 12:25:00,
2013-03-22 07:30:00,15.5,13.8,30.15,NE,44,0.0,-999.0,93,0.00,,,0.00,Wunderground v.1.15,2013-03-22 12:30:00,
2013-03-22 07:40:00,16.6,15.2,30.15,NE,44,0.0,-999.0,94,0.00,,,0.00,Wunderground v.1.15,2013-03-22 12:40:00,
2013-03-22 07:45:00,17.5,16.3,30.15,NE,44,0.0,-999.0,95,0.00,,,0.00,Wunderground v.1.15,2013-03-22 12:45:00,
2013-03-22 07:50:00,18.6,17.4,30.15,NE,44,0.0,-999.0,95,0.00,,,0.00,Wunderground v.1.15,2013-03-22 12:50:00,
2013-03-22 07:55:00,19.7,18.5,30.15,NE,44,0.0,-999.0,95,0.00,,,0.00,Wunderground v.1.15,2013-03-22 12:55:00,
2013-03-22 08:00:00,20.4,19.2,30.15,NE,44,0.0,-999.0,95,0.00,,,0.00,Wunderground v.1.15,2013-03-22 13:00:00,
2013-03-22 08:05:00,21.0,19.8,30.15,NE,44,0.0,-999.0,95,0.00,,,0.00,Wunderground v.1.15,2013-03-22 13:05:00,
2013-03-22 08:15:00,22.2,20.7,30.15,NE,44,0.0,-999.0,94,0.00,,,0.00,Wunderground v.1.15,2013-03-22 13:15:00,
2013-03-22 08:20:00,23.0,21.5,30.15,NE,44,0.0,-999.0,94,0.00,,,0.00,Wunderground v.1.15,2013-03-22 13:20:00,
2013-03-22 08:25:00,23.6,21.9,30.15,ENE,76,1.0,-999.0,93,0.00,,,0.00,Wunderground v.1.15,2013-03-22 13:25:00,
2013-03-22 08:30:00,24.3,22.3,30.15,ENE,76,1.0,-999.0,92,0.00,,,0.00,Wunderground v.1.15,2013-03-22 13:30:00,
2013-03-22 08:35:00,25.1,22.6,30.15,East,82,1.0,-999.0,90,0.00,,,0.00,Wunderground v.1.15,2013-03-22 13:35:00,
2013-03-22 08:45:00,26.4,23.3,30.16,East,101,1.0,-999.0,88,0.00,,,0.00,Wunderground v.1.15,2013-03-22 13:45:00,
2013-03-22 08:50:00,27.0,23.1,30.15,East,101,1.0,-999.0,85,0.00,,,0.00,Wunderground v.1.15,2013-03-22 13:50:00,
2013-03-22 08:55:00,27.6,23.4,30.16,ESE,102,2.0,-999.0,84,0.00,,,0.00,Wunderground v.1.15,2013-03-22 13:55:00,
2013-03-22 09:00:00,28.2,23.4,30.16,ESE,103,2.0,-999.0,82,0.00,,,0.00,Wunderground v.1.15,2013-03-22 14:00:00,
2013-03-22 09:05:00,28.7,23.3,30.16,ESE,103,2.0,-999.0,80,0.00,,,0.00,Wunderground v.1.15,2013-03-22 14:05:00,
2013-03-22 09:15:00,29.7,23.7,30.16,ESE,113,2.0,-999.0,78,0.00,,,0.00,Wunderground v.1.15,2013-03-22 14:15:00,
2013-03-22 09:20:00,30.2,22.9,30.15,ESE,117,2.0,-999.0,74,0.00,,,0.00,Wunderground v.1.15,2013-03-22 14:20:00,
2013-03-22 09:25:00,30.9,24.2,30.16,ESE,117,2.0,-999.0,76,0.00,,,0.00,Wunderground v.1.15,2013-03-22 14:25:00,
2013-03-22 09:30:00,31.5,23.8,30.16,SSE,163,2.0,-999.0,73,0.00,,,0.00,Wunderground v.1.15,2013-03-22 14:30:00,
2013-03-22 09:35:00,31.8,23.1,30.15,South,176,2.0,-999.0,70,0.00,,,0.00,Wunderground v.1.15,2013-03-22 14:35:00,
2013-03-22 09:40:00,31.9,21.8,30.16,SSE,155,3.0,-999.0,66,0.00,,,0.00,Wunderground v.1.15,2013-03-22 14:40:00,
2013-03-22 09:45:00,31.8,21.7,30.16,SSE,163,3.0,-999.0,66,0.00,,,0.00,Wunderground v.1.15,2013-03-22 14:45:00,
2013-03-22 09:50:00,32.3,22.6,30.16,South,169,3.0,-999.0,67,0.00,,,0.00,Wunderground v.1.15,2013-03-22 14:50:00,
2013-03-22 09:55:00,32.6,22.1,30.15,ESE,112,2.0,-999.0,65,0.00,,,0.00,Wunderground v.1.15,2013-03-22 14:55:00,
2013-03-22 10:00:00,32.7,22.2,30.15,SE,130,3.0,-999.0,65,0.00,,,0.00,Wunderground v.1.15,2013-03-22 15:00:00,
2013-03-22 10:05:00,33.0,21.8,30.15,SE,132,2.0,-999.0,63,0.00,,,0.00,Wunderground v.1.15,2013-03-22 15:05:00,
2013-03-22 10:15:00,33.2,22.7,30.15,SE,137,1.0,-999.0,65,0.00,,,0.00,Wunderground v.1.15,2013-03-22 15:15:00,
2013-03-22 10:20:00,34.0,22.7,30.15,SE,128,1.0,-999.0,63,0.00,,,0.00,Wunderground v.1.15,2013-03-22 15:20:00,
2013-03-22 10:25:00,34.3,21.4,30.15,WSW,246,2.0,-999.0,59,0.00,,,0.00,Wunderground v.1.15,2013-03-22 15:25:00,
2013-03-22 10:30:00,34.6,21.7,30.15,SSE,148,3.0,-999.0,59,0.00,,,0.00,Wunderground v.1.15,2013-03-22 15:30:00,
2013-03-22 10:35:00,34.8,21.5,30.15,SE,142,2.0,-999.0,58,0.00,,,0.00,Wunderground v.1.15,2013-03-22 15:35:00,
2013-03-22 10:45:00,35.3,21.2,30.15,SSW,192,2.0,-999.0,56,0.00,,,0.00,Wunderground v.1.15,2013-03-22 15:45:00,
2013-03-22 10:50:00,35.0,20.0,30.15,SSW,199,3.0,-999.0,54,0.00,,,0.00,Wunderground v.1.15,2013-03-22 15:50:00,
2013-03-22 10:55:00,34.9,20.4,30.15,SSW,196,3.0,-999.0,55,0.00,,,0.00,Wunderground v.1.15,2013-03-22 15:55:00,
2013-03-22 11:00:00,35.4,20.4,30.15,South,180,3.0,-999.0,54,0.00,,,0.00,Wunderground v.1.15,2013-03-22 16:00:00,
2013-03-22 11:05:00,35.5,19.1,30.15,West,267,3.0,-999.0,51,0.00,,,0.00,Wunderground v.1.15,2013-03-22 16:05:00,
2013-03-22 11:10:00,35.9,20.4,30.15,SW,221,2.0,-999.0,53,0.00,,,0.00,Wunderground v.1.15,2013-03-22 16:10:00,
2013-03-22 11:15:00,36.3,20.3,30.15,WSW,237,3.0,-999.0,52,0.00,,,0.00,Wunderground v.1.15,2013-03-22 16:15:00,
2013-03-22 11:25:00,36.5,19.1,30.15,SSW,213,3.0,-999.0,49,0.00,,,0.00,Wunderground v.1.15,2013-03-22 16:25:00,
2013-03-22 11:35:00,36.7,17.8,30.15,WSW,251,3.0,-999.0,46,0.00,,,0.00,Wunderground v.1.15,2013-03-22 16:35:00,
2013-03-22 11:40:00,36.5,18.2,30.14,WSW,245,2.0,-999.0,47,0.00,,,0.00,Wunderground v.1.15,2013-03-22 16:40:00,
2013-03-22 11:45:00,36.4,17.6,30.14,WSW,244,3.0,-999.0,46,0.00,,,0.00,Wunderground v.1.15,2013-03-22 16:45:00,
2013-03-22 11:55:00,36.5,17.7,30.14,WSW,245,1.0,-999.0,46,0.00,,,0.00,Wunderground v.1.15,2013-03-22 16:55:00,
2013-03-22 12:00:00,37.0,18.1,30.14,WSW,241,2.0,-999.0,46,0.00,,,0.00,Wunderground v.1.15,2013-03-22 17:00:00,
2013-03-22 12:05:00,37.3,18.4,30.14,SSE,163,3.0,-999.0,46,0.00,,,0.00,Wunderground v.1.15,2013-03-22 17:05:00,
2013-03-22 12:10:00,37.7,18.2,30.14,South,173,4.0,-999.0,45,0.00,,,0.00,Wunderground v.1.15,2013-03-22 17:10:00,
2013-03-22 12:15:00,37.8,18.3,30.14,SSE,163,4.0,-999.0,45,0.00,,,0.00,Wunderground v.1.15,2013-03-22 17:15:00,
2013-03-22 12:25:00,38.3,18.3,30.13,SW,216,4.0,-999.0,44,0.00,,,0.00,Wunderground v.1.15,2013-03-22 17:25:00,
2013-03-22 12:30:00,38.0,19.5,30.13,SW,217,3.0,-999.0,47,0.00,,,0.00,Wunderground v.1.15,2013-03-22 17:30:00,
2013-03-22 12:35:00,38.4,18.4,30.13,WSW,255,2.0,-999.0,44,0.00,,,0.00,Wunderground v.1.15,2013-03-22 17:35:00,
2013-03-22 12:45:00,39.0,19.4,30.12,WSW,241,3.0,-999.0,45,0.00,,,0.00,Wunderground v.1.15,2013-03-22 17:45:00,
2013-03-22 12:50:00,38.9,18.3,30.12,WSW,242,2.0,-999.0,43,0.00,,,0.00,Wunderground v.1.15,2013-03-22 17:50:00,
2013-03-22 12:55:00,39.2,18.5,30.12,WSW,238,1.0,-999.0,43,0.00,,,0.00,Wunderground v.1.15,2013-03-22 17:55:00,
2013-03-22 13:00:00,39.2,19.1,30.11,SW,215,3.0,-999.0,44,0.00,,,0.00,Wunderground v.1.15,2013-03-22 18:00:00,
2013-03-22 13:10:00,39.6,19.5,30.11,SSW,213,4.0,-999.0,44,0.00,,,0.00,Wunderground v.1.15,2013-03-22 18:10:00,
2013-03-22 13:15:00,39.7,19.0,30.11,SSE,162,4.0,-999.0,43,0.00,,,0.00,Wunderground v.1.15,2013-03-22 18:15:00,
2013-03-22 13:20:00,40.0,19.3,30.11,SE,144,4.0,-999.0,43,0.00,,,0.00,Wunderground v.1.15,2013-03-22 18:20:00,
2013-03-22 13:30:00,40.2,18.3,30.10,SSW,193,4.0,-999.0,41,0.00,,,0.00,Wunderground v.1.15,2013-03-22 18:30:00,
2013-03-22 13:35:00,40.4,18.5,30.10,SSW,194,2.0,-999.0,41,0.00,,,0.00,Wunderground v.1.15,2013-03-22 18:35:00,
2013-03-22 13:40:00,40.7,18.2,30.10,NNW,341,2.0,-999.0,40,0.00,,,0.00,Wunderground v.1.15,2013-03-22 18:40:00,
2013-03-22 13:45:00,41.0,20.2,30.10,South,171,2.0,-999.0,43,0.00,,,0.00,Wunderground v.1.15,2013-03-22 18:45:00,
2013-03-22 13:50:00,41.1,19.7,30.10,SW,225,3.0,-999.0,42,0.00,,,0.00,Wunderground v.1.15,2013-03-22 18:50:00,
2013-03-22 13:55:00,42.2,20.2,30.10,SW,225,4.0,-999.0,41,0.00,,,0.00,Wunderground v.1.15,2013-03-22 18:55:00,
2013-03-22 14:00:00,41.8,20.9,30.10,South,186,4.0,-999.0,43,0.00,,,0.00,Wunderground v.1.15,2013-03-22 19:00:00,
2013-03-22 14:05:00,41.4,20.0,30.09,SSW,205,4.0,-999.0,42,0.00,,,0.00,Wunderground v.1.15,2013-03-22 19:05:00,
2013-03-22 14:10:00,41.8,19.8,30.09,SSE,157,4.0,-999.0,41,0.00,,,0.00,Wunderground v.1.15,2013-03-22 19:10:00,
2013-03-22 14:15:00,41.8,18.6,30.09,SSW,192,4.0,-999.0,39,0.00,,,0.00,Wunderground v.1.15,2013-03-22 19:15:00,
2013-03-22 14:20:00,41.7,20.3,30.09,SE,134,4.0,-999.0,42,0.00,,,0.00,Wunderground v.1.15,2013-03-22 19:20:00,
2013-03-22 14:30:00,42.7,20.6,30.09,SW,236,4.0,-999.0,41,0.00,,,0.00,Wunderground v.1.15,2013-03-22 19:30:00,
2013-03-22 14:35:00,42.5,19.3,30.08,SSW,194,5.0,-999.0,39,0.00,,,0.00,Wunderground v.1.15,2013-03-22 19:35:00,
2013-03-22 14:40:00,42.1,19.5,30.08,SW,217,5.0,-999.0,40,0.00,,,0.00,Wunderground v.1.15,2013-03-22 19:40:00,
2013-03-22 14:45:00,41.8,19.2,30.08,ESE,113,4.0,-999.0,40,0.00,,,0.00,Wunderground v.1.15,2013-03-22 19:45:00,
2013-03-22 14:50:00,42.2,20.2,30.08,SW,216,3.0,-999.0,41,0.00,,,0.00,Wunderground v.1.15,2013-03-22 19:50:00,
2013-03-22 14:55:00,42.4,19.8,30.08,West,263,4.0,-999.0,40,0.00,,,0.00,Wunderground v.1.15,2013-03-22 19:55:00,
2013-03-22 15:05:00,43.1,18.6,30.07,WSW,242,3.0,-999.0,37,0.00,,,0.00,Wunderground v.1.15,2013-03-22 20:05:00,
2013-03-22 15:10:00,43.1,19.2,30.07,NW,317,2.0,-999.0,38,0.00,,,0.00,Wunderground v.1.15,2013-03-22 20:10:00,
2013-03-22 15:15:00,44.0,20.0,30.07,NW,323,2.0,-999.0,38,0.00,,,0.00,Wunderground v.1.15,2013-03-22 20:15:00,
2013-03-22 15:20:00,44.0,20.6,30.07,NW,314,3.0,-999.0,39,0.00,,,0.00,Wunderground v.1.15,2013-03-22 20:20:00,
2013-03-22 15:25:00,44.6,21.1,30.07,WSW,257,3.0,-999.0,39,0.00,,,0.00,Wunderground v.1.15,2013-03-22 20:25:00,
2013-03-22 15:30:00,44.5,20.4,30.07,SW,221,3.0,-999.0,38,0.00,,,0.00,Wunderground v.1.15,2013-03-22 20:30:00,
2013-03-22 15:35:00,44.1,20.7,30.07,SSW,213,2.0,-999.0,39,0.00,,,0.00,Wunderground v.1.15,2013-03-22 20:35:00,
2013-03-22 15:40:00,43.9,19.9,30.07,SSW,200,2.0,-999.0,38,0.00,,,0.00,Wunderground v.1.15,2013-03-22 20:40:00,
2013-03-22 15:45:00,44.5,20.4,30.07,West,276,2.0,-999.0,38,0.00,,,0.00,Wunderground v.1.15,2013-03-22 20:45:00,
2013-03-22 15:50:00,44.6,18.6,30.07,North,5,3.0,-999.0,35,0.00,,,0.00,Wunderground v.1.15,2013-03-22 20:50:00,
2013-03-22 15:55:00,44.7,20.0,30.07,SW,217,3.0,-999.0,37,0.00,,,0.00,Wunderground v.1.15,2013-03-22 20:55:00,
2013-03-22 16:05:00,44.8,19.4,30.07,SSW,211,3.0,-999.0,36,0.00,,,0.00,Wunderground v.1.15,2013-03-22 21:05:00,
2013-03-22 16:10:00,44.7,19.3,30.07,NW,308,3.0,-999.0,36,0.00,,,0.00,Wunderground v.1.15,2013-03-22 21:10:00,
2013-03-22 16:20:00,44.9,19.5,30.07,SSW,204,4.0,-999.0,36,0.00,,,0.00,Wunderground v.1.15,2013-03-22 21:20:00,
2013-03-22 16:25:00,44.7,18.7,30.08,SW,214,3.0,-999.0,35,0.00,,,0.00,Wunderground v.1.15,2013-03-22 21:25:00,
2013-03-22 16:30:00,44.6,19.3,30.08,West,262,2.0,-999.0,36,0.00,,,0.00,Wunderground v.1.15,2013-03-22 21:30:00,
2013-03-22 16:40:00,44.6,19.9,30.07,West,261,1.0,-999.0,37,0.00,,,0.00,Wunderground v.1.15,2013-03-22 21:40:00,
2013-03-22 16:45:00,44.8,19.4,30.08,SSW,213,1.0,-999.0,36,0.00,,,0.00,Wunderground v.1.15,2013-03-22 21:45:00,
2013-03-22 16:50:00,45.0,21.5,30.08,SW,223,3.0,-999.0,39,0.00,,,0.00,Wunderground v.1.15,2013-03-22 21:50:00,
2013-03-22 16:55:00,44.9,20.2,30.08,WNW,290,3.0,-999.0,37,0.00,,,0.00,Wunderground v.1.15,2013-03-22 21:55:00,
2013-03-22 17:00:00,45.0,19.0,30.08,WNW,292,2.0,-999.0,35,0.00,,,0.00,Wunderground v.1.15,2013-03-22 22:00:00,
2013-03-22 17:10:00,44.4,18.4,30.08,North,5,2.0,-999.0,35,0.00,,,0.00,Wunderground v.1.15,2013-03-22 22:10:00,
2013-03-22 17:15:00,44.6,20.5,30.08,SW,232,2.0,-999.0,38,0.00,,,0.00,Wunderground v.1.15,2013-03-22 22:15:00,
2013-03-22 17:20:00,44.7,19.3,30.08,SW,236,2.0,-999.0,36,0.00,,,0.00,Wunderground v.1.15,2013-03-22 22:20:00,
2013-03-22 17:25:00,44.6,19.3,30.08,WSW,240,2.0,-999.0,36,0.00,,,0.00,Wunderground v.1.15,2013-03-22 22:25:00,
2013-03-22 17:30:00,44.7,18.0,30.09,WNW,287,2.0,-999.0,34,0.00,,,0.00,Wunderground v.1.15,2013-03-22 22:30:00,
2013-03-22 17:35:00,44.5,18.5,30.09,WNW,286,1.0,-999.0,35,0.00,,,0.00,Wunderground v.1.15,2013-03-22 22:35:00,
2013-03-22 17:40:00,44.6,18.6,30.08,WNW,286,0.0,-999.0,35,0.00,,,0.00,Wunderground v.1.15,2013-03-22 22:40:00,
2013-03-22 17:45:00,44.4,17.7,30.08,WNW,287,1.0,-999.0,34,0.00,,,0.00,Wunderground v.1.15,2013-03-22 22:45:00,
2013-03-22 17:50:00,44.1,18.2,30.08,WNW,288,1.0,-999.0,35,0.00,,,0.00,Wunderground v.1.15,2013-03-22 22:50:00,
2013-03-22 17:55:00,43.9,19.3,30.08,WNW,288,1.0,-999.0,37,0.00,,,0.00,Wunderground v.1.15,2013-03-22 22:55:00,
2013-03-22 18:00:00,43.7,18.5,30.07,WNW,288,1.0,-999.0,36,0.00,,,0.00,Wunderground v.1.15,2013-03-22 23:00:00,
2013-03-22 18:05:00,43.6,17.7,30.07,WNW,288,0.0,-999.0,35,0.00,,,0.00,Wunderground v.1.15,2013-03-22 23:05:00,
2013-03-22 18:15:00,43.4,18.2,30.07,WNW,288,0.0,-999.0,36,0.00,,,0.00,Wunderground v.1.15,2013-03-22 23:15:00,
2013-03-22 18:20:00,43.4,18.2,30.07,WNW,288,0.0,-999.0,36,0.00,,,0.00,Wunderground v.1.15,2013-03-22 23:20:00,
2013-03-22 18:25:00,43.5,18.3,30.07,WNW,288,0.0,-999.0,36,0.00,,,0.00,Wunderground v.1.15,2013-03-22 23:25:00,
2013-03-22 18:30:00,43.5,18.3,30.07,WNW,288,0.0,-999.0,36,0.00,,,0.00,Wunderground v.1.15,2013-03-22 23:30:00,
2013-03-22 18:35:00,43.3,18.1,30.07,WNW,288,0.0,-999.0,36,0.00,,,0.00,Wunderground v.1.15,2013-03-22 23:35:00,
2013-03-22 18:40:00,42.9,18.4,30.07,WNW,288,0.0,-999.0,37,0.00,,,0.00,Wunderground v.1.15,2013-03-22 23:40:00,
2013-03-22 18:45:00,42.3,19.1,30.07,WNW,290,0.0,-999.0,39,0.00,,,0.00,Wunderground v.1.15,2013-03-22 23:45:00,
2013-03-22 18:50:00,41.8,18.0,30.08,WNW,289,1.0,-999.0,38,0.00,,,0.00,Wunderground v.1.15,2013-03-22 23:50:00,
2013-03-22 18:55:00,41.3,18.2,30.08,WNW,291,1.0,-999.0,39,0.00,,,0.00,Wunderground v.1.15,2013-03-22 23:55:00,
2013-03-22 19:00:00,40.9,18.4,30.08,WNW,291,0.0,-999.0,40,0.00,,,0.00,Wunderground v.1.15,2013-03-23 00:00:00,
2013-03-22 19:05:00,40.5,18.0,30.08,WNW,291,0.0,-999.0,40,0.00,,,0.00,Wunderground v.1.15,2013-03-23 00:05:00,
2013-03-22 19:15:00,39.8,18.0,30.08,WNW,291,1.0,-999.0,41,0.00,,,0.00,Wunderground v.1.15,2013-03-23 00:15:00,
2013-03-22 19:20:00,39.7,17.9,30.08,WNW,291,0.0,-999.0,41,0.00,,,0.00,Wunderground v.1.15,2013-03-23 00:20:00,
2013-03-22 19:25:00,39.5,17.7,30.08,WNW,291,1.0,-999.0,41,0.00,,,0.00,Wunderground v.1.15,2013-03-23 00:25:00,
2013-03-22 19:30:00,39.4,18.2,30.08,WNW,291,1.0,-999.0,42,0.00,,,0.00,Wunderground v.1.15,2013-03-23 00:30:00,
2013-03-22 19:35:00,39.3,18.1,30.08,WNW,291,1.0,-999.0,42,0.00,,,0.00,Wunderground v.1.15,2013-03-23 00:35:00,
2013-03-22 19:40:00,39.1,17.9,30.08,WNW,291,0.0,-999.0,42,0.00,,,0.00,Wunderground v.1.15,2013-03-23 00:40:00,
2013-03-22 19:50:00,38.8,20.8,30.08,WNW,291,0.0,-999.0,48,0.00,,,0.00,Wunderground v.1.15,2013-03-23 00:50:00,
2013-03-22 19:55:00,38.2,22.1,30.08,WNW,291,0.0,-999.0,52,0.00,,,0.00,Wunderground v.1.15,2013-03-23 00:55:00,
2013-03-22 20:00:00,37.7,20.7,30.08,WNW,291,0.0,-999.0,50,0.00,,,0.00,Wunderground v.1.15,2013-03-23 01:00:00,
2013-03-22 20:05:00,37.3,19.9,30.09,WNW,291,0.0,-999.0,49,0.00,,,0.00,Wunderground v.1.15,2013-03-23 01:05:00,
2013-03-22 20:09:00,37.0,19.1,30.09,WNW,291,0.0,-999.0,48,0.00,,,0.00,Wunderground v.1.15,2013-03-23 01:09:00,
2013-03-22 20:15:00,36.8,19.4,30.09,WNW,291,0.0,-999.0,49,0.00,,,0.00,Wunderground v.1.15,2013-03-23 01:15:00,
2013-03-22 20:20:00,36.8,20.8,30.10,WNW,291,0.0,-999.0,52,0.00,,,0.00,Wunderground v.1.15,2013-03-23 01:20:00,
2013-03-22 20:25:00,36.7,20.7,30.10,WNW,291,0.0,-999.0,52,0.00,,,0.00,Wunderground v.1.15,2013-03-23 01:25:00,
2013-03-22 20:30:00,36.6,21.1,30.10,WNW,291,0.0,-999.0,53,0.00,,,0.00,Wunderground v.1.15,2013-03-23 01:30:00,
2013-03-22 20:35:00,36.6,21.5,30.10,WNW,291,0.0,-999.0,54,0.00,,,0.00,Wunderground v.1.15,2013-03-23 01:35:00,
2013-03-22 20:40:00,36.5,22.7,30.10,WNW,291,0.0,-999.0,57,0.00,,,0.00,Wunderground v.1.15,2013-03-23 01:40:00,
2013-03-22 20:50:00,36.1,22.3,30.10,WNW,291,0.0,-999.0,57,0.00,,,0.00,Wunderground v.1.15,2013-03-23 01:50:00,
2013-03-22 20:55:00,35.9,23.0,30.10,WNW,291,0.0,-999.0,59,0.00,,,0.00,Wunderground v.1.15,2013-03-23 01:55:00,
2013-03-22 21:00:00,35.7,22.4,30.10,WNW,291,0.0,-999.0,58,0.00,,,0.00,Wunderground v.1.15,2013-03-23 02:00:00,
2013-03-22 21:05:00,35.6,23.1,30.10,WNW,291,0.0,-999.0,60,0.00,,,0.00,Wunderground v.1.15,2013-03-23 02:05:00,
2013-03-22 21:10:00,35.5,23.0,30.10,WNW,291,0.0,-999.0,60,0.00,,,0.00,Wunderground v.1.15,2013-03-23 02:10:00,
2013-03-22 21:15:00,35.3,23.2,30.10,WNW,291,0.0,-999.0,61,0.00,,,0.00,Wunderground v.1.15,2013-03-23 02:15:00,
2013-03-22 21:25:00,35.1,23.8,30.10,WNW,291,0.0,-999.0,63,0.00,,,0.00,Wunderground v.1.15,2013-03-23 02:25:00,
2013-03-22 21:30:00,35.0,23.7,30.10,WNW,291,0.0,-999.0,63,0.00,,,0.00,Wunderground v.1.15,2013-03-23 02:30:00,
2013-03-22 21:34:00,34.9,23.6,30.10,WNW,291,0.0,-999.0,63,0.00,,,0.00,Wunderground v.1.15,2013-03-23 02:34:00,
2013-03-22 21:40:00,34.8,23.5,30.11,WNW,291,0.0,-999.0,63,0.00,,,0.00,Wunderground v.1.15,2013-03-23 02:40:00,
2013-03-22 21:45:00,34.7,23.4,30.11,WNW,291,0.0,-999.0,63,0.00,,,0.00,Wunderground v.1.15,2013-03-23 02:45:00,
2013-03-22 21:55:00,34.6,23.3,30.11,WNW,291,0.0,-999.0,63,0.00,,,0.00,Wunderground v.1.15,2013-03-23 02:55:00,
2013-03-22 22:00:00,34.6,23.7,30.11,WNW,291,0.0,-999.0,64,0.00,,,0.00,Wunderground v.1.15,2013-03-23 03:00:00,
2013-03-22 22:05:00,34.5,23.2,30.11,WNW,291,0.0,-999.0,63,0.00,,,0.00,Wunderground v.1.15,2013-03-23 03:05:00,
2013-03-22 22:10:00,34.4,23.5,30.11,WNW,291,0.0,-999.0,64,0.00,,,0.00,Wunderground v.1.15,2013-03-23 03:10:00,
2013-03-22 22:15:00,34.3,23.4,30.11,WNW,291,0.0,-999.0,64,0.00,,,0.00,Wunderground v.1.15,2013-03-23 03:15:00,
2013-03-22 22:25:00,34.5,24.3,30.11,ENE,76,1.0,-999.0,66,0.00,,,0.00,Wunderground v.1.15,2013-03-23 03:25:00,
2013-03-22 22:30:00,34.5,24.7,30.11,ENE,76,0.0,-999.0,67,0.00,,,0.00,Wunderground v.1.15,2013-03-23 03:30:00,
2013-03-22 22:35:00,34.3,24.8,30.11,ENE,76,0.0,-999.0,68,0.00,,,0.00,Wunderground v.1.15,2013-03-23 03:35:00,
2013-03-22 22:40:00,34.2,24.7,30.11,ENE,76,0.0,-999.0,68,0.00,,,0.00,Wunderground v.1.15,2013-03-23 03:40:00,
2013-03-22 22:45:00,34.0,24.9,30.11,ENE,76,0.0,-999.0,69,0.00,,,0.00,Wunderground v.1.15,2013-03-23 03:45:00,
2013-03-22 22:50:00,33.9,25.1,30.11,East,85,0.0,-999.0,70,0.00,,,0.00,Wunderground v.1.15,2013-03-23 03:50:00,
2013-03-22 22:55:00,33.7,25.0,30.11,East,85,0.0,-999.0,70,0.00,,,0.00,Wunderground v.1.15,2013-03-23 03:55:00,
2013-03-22 23:00:00,33.5,24.8,30.11,East,85,0.0,-999.0,70,0.00,,,0.00,Wunderground v.1.15,2013-03-23 04:00:00,
2013-03-22 23:05:00,33.4,24.7,30.11,East,85,0.0,-999.0,70,0.00,,,0.00,Wunderground v.1.15,2013-03-23 04:05:00,
2013-03-22 23:10:00,33.2,24.8,30.11,East,86,0.0,-999.0,71,0.00,,,0.00,Wunderground v.1.15,2013-03-23 04:10:00,
2013-03-22 23:15:00,33.0,24.6,30.11,East,86,0.0,-999.0,71,0.00,,,0.00,Wunderground v.1.15,2013-03-23 04:15:00,
2013-03-22 23:20:00,33.0,25.0,30.10,East,86,1.0,-999.0,72,0.00,,,0.00,Wunderground v.1.15,2013-03-23 04:20:00,
2013-03-22 23:25:00,32.9,24.9,30.11,NE,34,1.0,-999.0,72,0.00,,,0.00,Wunderground v.1.15,2013-03-23 04:25:00,
2013-03-22 23:30:00,32.9,24.9,30.11,East,100,1.0,-999.0,72,0.00,,,0.00,Wunderground v.1.15,2013-03-23 04:30:00,
2013-03-22 23:35:00,32.9,24.9,30.11,NE,50,1.0,-999.0,72,0.00,,,0.00,Wunderground v.1.15,2013-03-23 04:35:00,
2013-03-22 23:40:00,33.0,25.0,30.11,East,82,1.0,-999.0,72,0.00,,,0.00,Wunderground v.1.15,2013-03-23 04:40:00,
2013-03-22 23:45:00,32.9,24.9,30.11,ESE,104,1.0,-999.0,72,0.00,,,0.00,Wunderground v.1.15,2013-03-23 04:45:00,
2013-03-22 23:50:00,32.9,24.9,30.11,ESE,102,1.0,-999.0,72,0.00,,,0.00,Wunderground v.1.15,2013-03-23 04:50:00,